Glenwood, New York
Current Conditions -  °F | °C
As of 6:54 AM on Wednesday 28 Jan 2015 (Local Time) from KBUF Reporting Station
Clear Clear  
Wind Chill: -2°   Ceiling: Unl
Heat Index:   Visibility: 10mi
Dew Point:   Wind: 7mph
Humidity: 80%   Direction: 240°WSW
Pressure: 30.22"   Gusts: NA
Location:  42.61°N, 78.65°W
Report Text: KBUF 281154Z 24006KT 10SM CLR M13/M16 A3022 RMK AO2 SLP250 4/004 T11281156 11122 21150 52027
Loading
Personal Weather Stations






























Interactive Weather Map New forecast layout! Learn more

10-Day Weather Forecast

Advertisements
Track Severe Weather on mobile